createdAt,value
2023-04-21T00:00:53.690Z,16.64
2023-04-21T00:03:22.578Z,16.63
2023-04-21T00:05:50.908Z,16.61
2023-04-21T00:08:18.373Z,16.53
2023-04-21T00:10:45.430Z,16.34
2023-04-21T00:13:12.242Z,16.17
2023-04-21T00:15:38.862Z,16.16
2023-04-21T00:18:06.308Z,16.05
2023-04-21T00:20:32.863Z,15.95
2023-04-21T00:22:59.828Z,15.93
2023-04-21T00:25:26.456Z,15.83
2023-04-21T00:27:53.187Z,15.84
2023-04-21T00:30:19.694Z,15.77
2023-04-21T00:32:46.199Z,15.61
2023-04-21T00:35:13.081Z,15.55
2023-04-21T00:37:40.399Z,15.51
2023-04-21T00:40:07.996Z,15.33
2023-04-21T00:42:34.499Z,15.29
2023-04-21T00:45:01.047Z,15.27
2023-04-21T00:47:27.963Z,15.11
2023-04-21T00:49:54.971Z,15.10
2023-04-21T00:52:21.828Z,15.06
2023-04-21T00:54:48.538Z,14.92
2023-04-21T00:57:15.263Z,14.94
2023-04-21T00:59:42.063Z,14.89
2023-04-21T01:02:09.156Z,14.83
2023-04-21T01:04:39.043Z,14.74
2023-04-21T01:07:07.870Z,14.65
2023-04-21T01:09:34.784Z,14.69
2023-04-21T01:12:04.904Z,14.66
2023-04-21T01:14:31.860Z,14.57
2023-04-21T01:16:59.238Z,14.53
2023-04-21T01:19:30.154Z,14.50
2023-04-21T01:22:00.968Z,14.41
2023-04-21T01:24:37.138Z,14.46
2023-04-21T01:27:03.982Z,14.38
2023-04-21T01:29:34.902Z,14.35
2023-04-21T01:32:14.144Z,14.25
2023-04-21T01:34:41.560Z,14.26
2023-04-21T01:37:21.258Z,14.21
2023-04-21T01:39:54.426Z,14.19
2023-04-21T01:42:23.230Z,14.23
2023-04-21T01:44:50.038Z,14.25
2023-04-21T01:47:17.718Z,14.26
2023-04-21T01:49:44.293Z,14.17
2023-04-21T01:52:11.434Z,14.20
2023-04-21T01:54:38.065Z,14.18
2023-04-21T01:57:04.807Z,14.11
2023-04-21T01:59:31.369Z,14.17
2023-04-21T02:01:57.945Z,14.12
2023-04-21T02:04:24.828Z,14.13
2023-04-21T02:06:51.532Z,14.04
2023-04-21T02:09:18.353Z,14.05
2023-04-21T02:11:45.267Z,14.07
2023-04-21T02:14:12.520Z,13.96
2023-04-21T02:16:39.094Z,14.07
2023-04-21T02:19:06.167Z,14.06
2023-04-21T02:21:32.711Z,13.99
2023-04-21T02:23:59.253Z,14.01
2023-04-21T02:26:25.747Z,13.96
2023-04-21T02:28:52.299Z,14.02
2023-04-21T02:31:18.966Z,14.13
2023-04-21T02:33:46.372Z,14.10
2023-04-21T02:36:14.082Z,14.06
2023-04-21T02:38:40.656Z,14.06
2023-04-21T02:41:07.302Z,14.02
2023-04-21T02:43:33.823Z,13.88
2023-04-21T02:46:00.333Z,13.93
2023-04-21T02:48:26.922Z,13.95
2023-04-21T02:50:53.514Z,13.93
2023-04-21T02:53:20.672Z,13.93
2023-04-21T02:55:47.336Z,13.98
2023-04-21T02:58:15.426Z,13.84
2023-04-21T03:00:42.090Z,13.79
2023-04-21T03:03:08.796Z,13.92
2023-04-21T03:05:35.741Z,13.79
2023-04-21T03:08:02.275Z,13.90
2023-04-21T03:10:28.772Z,13.82
2023-04-21T03:12:56.348Z,13.96
2023-04-21T03:15:22.930Z,13.89
2023-04-21T03:17:49.678Z,13.83
2023-04-21T03:20:17.098Z,13.83
2023-04-21T03:22:43.643Z,13.90
2023-04-21T03:25:11.344Z,13.78
2023-04-21T03:27:38.059Z,13.77
2023-04-21T03:30:05.394Z,13.85
2023-04-21T03:32:31.869Z,13.64
2023-04-21T03:34:58.436Z,13.61
2023-04-21T03:37:24.976Z,13.65
2023-04-21T03:39:51.459Z,13.56
2023-04-21T03:42:18.213Z,13.66
2023-04-21T03:44:44.762Z,13.58
2023-04-21T03:47:11.290Z,13.53
2023-04-21T03:49:37.799Z,13.58
2023-04-21T03:52:04.535Z,13.54
2023-04-21T03:54:31.041Z,13.55
2023-04-21T03:56:57.576Z,13.53
2023-04-21T03:59:24.082Z,13.66
2023-04-21T04:01:50.842Z,13.45
2023-04-21T04:04:18.338Z,13.42
2023-04-21T04:06:45.204Z,13.33
2023-04-21T04:09:11.710Z,13.48
2023-04-21T04:11:38.320Z,13.47
2023-04-21T04:14:04.792Z,13.44
2023-04-21T04:16:31.337Z,13.38
2023-04-21T04:18:57.896Z,13.39
2023-04-21T04:21:24.409Z,13.34
2023-04-21T04:23:54.054Z,13.29
2023-04-21T04:26:22.731Z,13.33
2023-04-21T04:28:49.576Z,13.41
2023-04-21T04:31:17.278Z,13.32
2023-04-21T04:33:44.473Z,13.36
2023-04-21T04:36:14.332Z,13.33
2023-04-21T04:38:41.752Z,13.29
2023-04-21T04:41:09.097Z,13.28
2023-04-21T04:43:39.358Z,13.34
2023-04-21T04:46:06.430Z,13.31
2023-04-21T04:48:33.078Z,13.29
2023-04-21T04:50:59.593Z,13.17
2023-04-21T04:53:28.585Z,13.13
2023-04-21T04:55:55.329Z,13.15
2023-04-21T04:58:22.405Z,13.10
2023-04-21T05:00:48.932Z,13.18
2023-04-21T05:03:15.804Z,13.21
2023-04-21T05:05:42.590Z,13.26
2023-04-21T05:08:09.134Z,13.25
2023-04-21T05:10:35.744Z,13.35
2023-04-21T05:13:02.317Z,13.34
2023-04-21T05:15:28.948Z,13.28
2023-04-21T05:17:55.558Z,13.26
2023-04-21T05:20:22.987Z,13.26
2023-04-21T05:22:49.524Z,13.24
2023-04-21T05:25:16.167Z,13.30
2023-04-21T05:27:43.421Z,13.23
2023-04-21T05:30:10.477Z,13.24
2023-04-21T05:32:37.311Z,13.20
2023-04-21T05:35:04.136Z,13.21
2023-04-21T05:37:30.715Z,13.23
2023-04-21T05:39:57.216Z,13.20
2023-04-21T05:42:24.208Z,13.30
2023-04-21T05:44:51.075Z,13.29
2023-04-21T05:47:17.617Z,13.26
2023-04-21T05:49:50.091Z,13.30
2023-04-21T05:52:17.908Z,13.36
2023-04-21T05:54:44.616Z,13.52
2023-04-21T05:57:11.154Z,13.41
2023-04-21T05:59:37.796Z,13.42
2023-04-21T06:02:04.562Z,13.45
2023-04-21T06:04:31.501Z,13.39
2023-04-21T06:06:58.235Z,13.54
2023-04-21T06:09:24.759Z,13.57
2023-04-21T06:11:51.276Z,13.64
2023-04-21T06:14:18.044Z,13.63
2023-04-21T06:16:44.776Z,13.63
2023-04-21T06:19:11.369Z,13.62
2023-04-21T06:21:37.926Z,13.69
2023-04-21T06:24:04.628Z,13.70
2023-04-21T06:26:31.124Z,13.75
2023-04-21T06:28:57.761Z,13.82
2023-04-21T06:31:24.270Z,13.82
2023-04-21T06:33:50.895Z,13.79
2023-04-21T06:36:18.119Z,13.79
2023-04-21T06:38:45.184Z,13.83
2023-04-21T06:41:11.806Z,13.90
2023-04-21T06:43:38.392Z,13.98
2023-04-21T06:46:05.156Z,13.99
2023-04-21T06:48:31.933Z,14.04
2023-04-21T06:50:59.106Z,14.06
2023-04-21T06:53:25.653Z,14.08
2023-04-21T06:55:53.386Z,14.18
2023-04-21T06:58:21.330Z,14.21
2023-04-21T07:00:48.218Z,14.28
2023-04-21T07:03:14.944Z,14.33
2023-04-21T07:05:41.560Z,14.37
2023-04-21T07:08:08.118Z,14.35
2023-04-21T07:10:34.626Z,14.39
2023-04-21T07:13:01.130Z,14.45
2023-04-21T07:15:27.763Z,14.46
2023-04-21T07:17:54.332Z,14.50
2023-04-21T07:20:20.976Z,14.59
2023-04-21T07:22:47.514Z,14.65
2023-04-21T07:25:14.117Z,14.68
2023-04-21T07:27:40.659Z,14.78
2023-04-21T07:30:07.929Z,14.84
2023-04-21T07:32:35.192Z,14.90
2023-04-21T07:35:02.071Z,14.92
2023-04-21T07:37:29.012Z,15.02
2023-04-21T07:39:55.547Z,15.10
2023-04-21T07:42:22.579Z,15.19
2023-04-21T07:44:49.390Z,15.23
2023-04-21T07:47:15.966Z,15.30
2023-04-21T07:49:43.188Z,15.33
2023-04-21T07:52:09.959Z,15.38
2023-04-21T07:54:36.460Z,15.41
2023-04-21T07:57:03.776Z,15.55
2023-04-21T07:59:30.523Z,15.65
2023-04-21T08:01:57.313Z,15.72
2023-04-21T08:04:24.144Z,15.75
2023-04-21T08:06:51.368Z,15.78
2023-04-21T08:09:18.200Z,15.87
2023-04-21T08:11:44.980Z,15.94
2023-04-21T08:14:11.965Z,16.01
2023-04-21T08:16:40.343Z,16.12
2023-04-21T08:19:08.081Z,16.14
2023-04-21T08:21:34.826Z,16.18
2023-04-21T08:24:01.329Z,16.19
2023-04-21T08:26:30.173Z,16.25
2023-04-21T08:28:57.349Z,16.29
2023-04-21T08:31:24.108Z,16.28
2023-04-21T08:34:01.343Z,16.32
2023-04-21T08:36:30.127Z,16.38
2023-04-21T08:38:57.176Z,16.47
2023-04-21T08:41:24.997Z,16.55
2023-04-21T08:43:51.819Z,16.58
2023-04-21T08:46:19.390Z,16.62
2023-04-21T08:48:47.263Z,16.70
2023-04-21T08:51:21.369Z,16.76
2023-04-21T08:53:47.911Z,16.83
2023-04-21T08:56:14.942Z,16.94
2023-04-21T08:58:42.039Z,17.00
2023-04-21T09:01:08.768Z,17.06
2023-04-21T09:03:36.329Z,17.08
2023-04-21T09:06:06.356Z,17.13
2023-04-21T09:08:35.096Z,17.14
2023-04-21T09:11:01.883Z,17.13
2023-04-21T09:13:34.340Z,17.19
2023-04-21T09:16:02.965Z,17.22
2023-04-21T09:18:36.550Z,17.26
2023-04-21T09:21:13.161Z,17.35
2023-04-21T09:23:49.115Z,17.40
2023-04-21T09:26:17.297Z,17.41
2023-04-21T09:28:45.543Z,17.49
2023-04-21T09:31:20.152Z,17.57
2023-04-21T09:33:58.396Z,17.56
2023-04-21T09:36:31.210Z,17.59
2023-04-21T09:41:32.123Z,17.62
2023-04-21T09:44:02.000Z,17.65
2023-04-21T09:46:33.349Z,17.85
2023-04-21T09:49:04.382Z,17.85
2023-04-21T09:54:28.456Z,17.92
2023-04-21T09:56:59.022Z,18.04
2023-04-21T09:59:29.300Z,17.99
2023-04-21T10:01:58.118Z,18.10
2023-04-21T10:04:26.435Z,18.12
2023-04-21T10:06:53.494Z,18.23
2023-04-21T10:09:23.707Z,18.27
2023-04-21T10:11:50.967Z,18.22
2023-04-21T10:14:17.647Z,18.22
2023-04-21T10:16:44.446Z,18.30
2023-04-21T10:19:25.684Z,18.37
2023-04-21T10:21:55.434Z,18.45
2023-04-21T10:24:22.234Z,18.47
2023-04-21T10:26:52.532Z,18.52
2023-04-21T10:29:34.756Z,18.68
2023-04-21T10:32:09.144Z,18.73
2023-04-21T10:34:38.082Z,18.70
2023-04-21T10:37:04.804Z,18.73
2023-04-21T10:39:35.840Z,18.70
2023-04-21T10:42:20.882Z,18.81
2023-04-21T10:44:56.499Z,18.81
2023-04-21T10:47:29.516Z,18.90
2023-04-21T10:50:00.591Z,18.81
2023-04-21T10:52:33.543Z,18.86
2023-04-21T10:55:00.424Z,18.92
2023-04-21T10:57:35.506Z,19.07
2023-04-21T11:00:06.232Z,19.14
2023-04-21T11:02:37.323Z,19.16
2023-04-21T11:05:06.307Z,19.19
2023-04-21T11:07:32.913Z,19.20
2023-04-21T11:10:07.447Z,19.30
2023-04-21T11:12:37.520Z,19.36
2023-04-21T11:15:09.798Z,19.49
2023-04-21T11:17:39.266Z,19.49
2023-04-21T11:20:06.888Z,19.47
2023-04-21T11:22:34.233Z,19.49
2023-04-21T11:25:00.980Z,19.50
2023-04-21T11:27:29.999Z,19.52
2023-04-21T11:29:57.628Z,19.55
2023-04-21T11:32:24.677Z,19.66
2023-04-21T11:34:51.503Z,19.72
2023-04-21T11:37:25.643Z,19.75
2023-04-21T11:39:56.991Z,19.82
2023-04-21T11:42:23.550Z,19.88
2023-04-21T11:44:50.308Z,19.94
2023-04-21T11:47:24.631Z,20.03
2023-04-21T11:49:59.570Z,20.04
2023-04-21T11:52:33.987Z,20.15
2023-04-21T11:55:03.898Z,20.24
2023-04-21T11:57:32.578Z,20.22
2023-04-21T12:00:06.731Z,20.25
2023-04-21T12:02:34.093Z,20.26
2023-04-21T12:05:09.478Z,20.38
2023-04-21T12:07:45.673Z,20.34
2023-04-21T12:10:15.336Z,20.29
2023-04-21T12:12:43.079Z,20.32
2023-04-21T12:15:11.209Z,20.35
2023-04-21T12:17:46.071Z,20.35
2023-04-21T12:20:13.337Z,20.37
2023-04-21T12:22:39.872Z,20.44
2023-04-21T12:25:06.828Z,20.40
2023-04-21T12:27:36.275Z,20.43
2023-04-21T12:30:04.088Z,20.46
2023-04-21T12:32:30.895Z,20.47
2023-04-21T12:34:57.638Z,20.35
2023-04-21T12:37:24.185Z,20.44
2023-04-21T12:39:50.734Z,20.50
2023-04-21T12:42:17.240Z,20.51
2023-04-21T12:44:43.726Z,20.51
2023-04-21T12:47:10.653Z,20.47
2023-04-21T12:49:38.047Z,20.50
2023-04-21T12:52:06.135Z,20.52
2023-04-21T12:54:33.008Z,20.56
2023-04-21T12:56:59.706Z,20.61
2023-04-21T12:59:26.476Z,20.55
2023-04-21T13:01:53.211Z,20.59
2023-04-21T13:04:19.960Z,20.60
2023-04-21T13:06:47.087Z,20.62
2023-04-21T13:09:13.692Z,20.63
2023-04-21T13:11:40.244Z,20.65
2023-04-21T13:14:07.469Z,20.61
2023-04-21T13:16:34.039Z,20.57
2023-04-21T13:19:00.869Z,20.68
2023-04-21T13:21:27.941Z,20.67
2023-04-21T13:23:54.474Z,20.69
2023-04-21T13:26:21.058Z,20.79
2023-04-21T13:28:47.988Z,20.77
2023-04-21T13:31:14.787Z,20.98
2023-04-21T13:33:42.181Z,20.91
2023-04-21T13:36:12.614Z,20.82
2023-04-21T13:38:40.627Z,20.79
2023-04-21T13:41:07.818Z,20.78
2023-04-21T13:43:34.681Z,20.76
2023-04-21T13:46:01.347Z,20.83
2023-04-21T13:48:29.702Z,20.82
2023-04-21T13:50:56.360Z,20.87
2023-04-21T13:53:22.997Z,20.84
2023-04-21T13:55:50.121Z,20.68
2023-04-21T13:58:17.159Z,20.75
2023-04-21T14:00:43.988Z,20.75
2023-04-21T14:03:11.614Z,20.79
2023-04-21T14:05:38.986Z,20.79
2023-04-21T14:08:06.026Z,20.75
2023-04-21T14:10:32.707Z,20.70
2023-04-21T14:12:59.354Z,20.63
2023-04-21T14:15:26.418Z,20.62
2023-04-21T14:17:53.798Z,20.66
2023-04-21T14:20:21.475Z,20.59
2023-04-21T14:22:48.127Z,20.61
2023-04-21T14:25:14.846Z,20.54
2023-04-21T14:27:41.490Z,20.50
2023-04-21T14:30:08.649Z,20.55
2023-04-21T14:32:35.422Z,20.59
2023-04-21T14:35:03.868Z,20.47
2023-04-21T14:37:30.755Z,20.47
2023-04-21T14:39:57.276Z,20.61
2023-04-21T14:42:24.092Z,20.58
2023-04-21T14:44:50.784Z,20.61
2023-04-21T14:47:17.413Z,20.65
2023-04-21T14:49:44.065Z,20.64
2023-04-21T14:52:10.565Z,20.78
2023-04-21T14:54:37.032Z,20.75
2023-04-21T14:57:18.709Z,20.65
2023-04-21T14:59:46.662Z,20.67
2023-04-21T15:02:13.967Z,20.65
2023-04-21T15:04:41.085Z,20.55
2023-04-21T15:07:07.750Z,20.59
2023-04-21T15:09:35.947Z,20.44
2023-04-21T15:12:02.916Z,20.43
2023-04-21T15:14:29.742Z,20.43
2023-04-21T15:16:56.397Z,20.43
2023-04-21T15:19:32.031Z,20.50
2023-04-21T15:21:58.692Z,20.52
2023-04-21T15:24:25.560Z,20.69
2023-04-21T15:26:52.045Z,20.77
2023-04-21T15:29:18.781Z,20.88
2023-04-21T15:31:45.463Z,20.84
2023-04-21T15:34:12.075Z,20.84
2023-04-21T15:36:38.613Z,20.90
2023-04-21T15:39:05.229Z,20.96
2023-04-21T15:41:32.022Z,20.83
2023-04-21T15:44:00.060Z,20.71
2023-04-21T15:46:27.052Z,20.51
2023-04-21T15:48:53.755Z,20.63
2023-04-21T15:51:20.475Z,20.46
2023-04-21T15:53:48.040Z,20.57
2023-04-21T15:56:15.907Z,20.81
2023-04-21T15:58:43.370Z,21.09
2023-04-21T16:01:10.274Z,21.37
2023-04-21T16:03:37.163Z,21.70
2023-04-21T16:06:04.346Z,21.73
2023-04-21T16:08:33.287Z,21.62
2023-04-21T16:11:00.584Z,21.83
2023-04-21T16:13:27.396Z,21.70
2023-04-21T16:15:54.121Z,21.83
2023-04-21T16:18:20.971Z,21.83
2023-04-21T16:20:47.693Z,22.04
2023-04-21T16:23:15.115Z,21.97
2023-04-21T16:25:42.041Z,21.88
2023-04-21T16:28:09.741Z,21.75
2023-04-21T16:30:38.616Z,21.75
2023-04-21T16:33:05.167Z,21.88
2023-04-21T16:35:32.016Z,21.84
2023-04-21T16:37:58.744Z,21.74
2023-04-21T16:40:25.852Z,21.98
2023-04-21T16:42:52.648Z,21.87
2023-04-21T16:45:19.613Z,21.92
2023-04-21T16:47:47.416Z,21.76
2023-04-21T16:50:14.240Z,21.48
2023-04-21T16:52:40.891Z,21.41
2023-04-21T16:55:08.192Z,21.55
2023-04-21T16:57:34.921Z,21.66
2023-04-21T17:00:07.022Z,21.63
2023-04-21T17:02:34.175Z,21.44
2023-04-21T17:05:01.496Z,21.63
2023-04-21T17:07:28.322Z,21.67
2023-04-21T17:09:54.940Z,21.78
2023-04-21T17:12:21.568Z,21.57
2023-04-21T17:14:48.644Z,21.28
2023-04-21T17:17:15.283Z,21.11
2023-04-21T17:19:41.816Z,21.21
2023-04-21T17:22:08.356Z,21.13
2023-04-21T17:24:45.360Z,21.18
2023-04-21T17:27:19.307Z,20.96
2023-04-21T17:29:46.830Z,20.78
2023-04-21T17:32:13.460Z,20.46
2023-04-21T17:34:40.230Z,20.15
2023-04-21T17:37:07.019Z,19.96
2023-04-21T17:39:34.061Z,19.92
2023-04-21T17:42:03.068Z,19.63
2023-04-21T17:44:31.100Z,19.49
2023-04-21T17:47:00.655Z,19.35
2023-04-21T17:49:27.302Z,19.25
2023-04-21T17:51:53.772Z,19.31
2023-04-21T17:54:20.352Z,19.22
2023-04-21T17:56:47.002Z,18.95
2023-04-21T17:59:13.857Z,18.78
2023-04-21T18:01:40.828Z,18.77
2023-04-21T18:04:07.949Z,18.59
2023-04-21T18:06:36.086Z,18.53
2023-04-21T18:09:05.261Z,18.37
2023-04-21T18:11:31.931Z,18.25
2023-04-21T18:13:58.770Z,18.12
2023-04-21T18:16:25.702Z,18.00
2023-04-21T18:18:52.398Z,17.88
2023-04-21T18:21:18.999Z,17.82
2023-04-21T18:23:45.505Z,17.76
2023-04-21T18:26:12.058Z,17.49
2023-04-21T18:28:38.604Z,17.51
2023-04-21T18:31:05.348Z,17.42
2023-04-21T18:33:31.935Z,17.35
2023-04-21T18:35:58.438Z,17.29
2023-04-21T18:38:25.105Z,17.27
2023-04-21T18:40:51.635Z,17.17
2023-04-21T18:43:18.192Z,17.10
2023-04-21T18:45:44.727Z,16.94
2023-04-21T18:48:11.372Z,16.91
2023-04-21T18:50:40.854Z,16.83
2023-04-21T18:53:08.817Z,16.84
2023-04-21T18:55:36.294Z,16.77
2023-04-21T18:58:03.498Z,16.71
2023-04-21T19:00:31.860Z,16.66
2023-04-21T19:03:01.897Z,16.67
2023-04-21T19:05:31.061Z,16.60
2023-04-21T19:07:58.383Z,16.55
2023-04-21T19:10:24.910Z,16.54
2023-04-21T19:12:51.626Z,16.41
2023-04-21T19:15:18.321Z,16.39
2023-04-21T19:17:45.181Z,16.34
2023-04-21T19:20:12.251Z,16.30
2023-04-21T19:22:39.223Z,16.23
2023-04-21T19:25:07.090Z,16.27
2023-04-21T19:27:33.973Z,16.22
2023-04-21T19:30:00.987Z,16.19
2023-04-21T19:32:27.730Z,16.14
2023-04-21T19:34:54.395Z,16.14
2023-04-21T19:37:21.296Z,16.12
2023-04-21T19:39:47.980Z,16.05
2023-04-21T19:42:14.643Z,16.05
2023-04-21T19:44:41.795Z,16.07
2023-04-21T19:47:08.364Z,15.97
2023-04-21T19:49:35.541Z,16.02
2023-04-21T19:52:02.088Z,16.01
2023-04-21T19:54:28.652Z,15.97
2023-04-21T19:56:55.549Z,15.92
2023-04-21T19:59:22.113Z,15.90
2023-04-21T20:01:48.660Z,15.89
2023-04-21T20:04:16.434Z,15.91
2023-04-21T20:06:43.641Z,15.85
2023-04-21T20:09:10.500Z,15.88
2023-04-21T20:11:37.256Z,15.89
2023-04-21T20:14:03.868Z,15.87
2023-04-21T20:16:31.901Z,15.82
2023-04-21T20:18:58.978Z,15.80
2023-04-21T20:21:25.906Z,15.79
2023-04-21T20:23:52.714Z,15.80
2023-04-21T20:26:19.298Z,15.74
2023-04-21T20:28:45.832Z,15.73
2023-04-21T20:31:12.625Z,15.77
2023-04-21T20:33:39.491Z,15.71
2023-04-21T20:36:08.775Z,15.75
2023-04-21T20:38:35.544Z,15.79
2023-04-21T20:41:03.311Z,15.72
2023-04-21T20:43:33.100Z,15.72
2023-04-21T20:46:01.293Z,15.75
2023-04-21T20:48:28.002Z,15.65
2023-04-21T20:50:55.723Z,15.66
2023-04-21T20:53:22.783Z,15.70
2023-04-21T20:55:49.578Z,15.70
2023-04-21T20:58:16.163Z,15.70
2023-04-21T21:00:42.751Z,15.65
2023-04-21T21:03:11.524Z,15.65
2023-04-21T21:05:38.726Z,15.61
2023-04-21T21:08:05.697Z,15.64
2023-04-21T21:10:32.286Z,15.59
2023-04-21T21:12:59.614Z,15.58
2023-04-21T21:15:27.654Z,15.51
2023-04-21T21:17:54.351Z,15.49
2023-04-21T21:20:21.084Z,15.52
2023-04-21T21:22:47.633Z,15.49
2023-04-21T21:25:14.202Z,15.56
2023-04-21T21:27:40.753Z,15.59
2023-04-21T21:30:07.986Z,15.59
2023-04-21T21:32:34.638Z,15.59
2023-04-21T21:35:01.177Z,15.55
2023-04-21T21:37:27.931Z,15.56
2023-04-21T21:39:55.504Z,15.53
2023-04-21T21:42:22.660Z,15.51
2023-04-21T21:44:49.469Z,15.47
2023-04-21T21:47:18.075Z,15.47
2023-04-21T21:49:44.586Z,15.49
2023-04-21T21:52:11.106Z,15.49
2023-04-21T21:54:37.722Z,15.51
2023-04-21T21:57:04.356Z,15.47
2023-04-21T21:59:31.028Z,15.51
2023-04-21T22:01:57.594Z,15.48
2023-04-21T22:04:24.300Z,15.45
2023-04-21T22:06:51.235Z,15.44
2023-04-21T22:09:18.600Z,15.46
2023-04-21T22:11:46.176Z,15.45
2023-04-21T22:14:22.800Z,15.43
2023-04-21T22:16:50.663Z,15.46
2023-04-21T22:19:18.983Z,15.42
2023-04-21T22:21:45.952Z,15.43
2023-04-21T22:24:13.034Z,15.42
2023-04-21T22:26:39.597Z,15.42
2023-04-21T22:29:06.304Z,15.44
2023-04-21T22:31:33.056Z,15.45
2023-04-21T22:33:59.693Z,15.47
2023-04-21T22:36:26.308Z,15.42
2023-04-21T22:38:52.882Z,15.40
2023-04-21T22:41:20.204Z,15.40
2023-04-21T22:43:47.565Z,15.44
2023-04-21T22:46:14.366Z,15.42
2023-04-21T22:48:41.366Z,15.43
2023-04-21T22:51:07.897Z,15.43
2023-04-21T22:53:34.641Z,15.45
2023-04-21T22:56:01.197Z,15.44
2023-04-21T22:58:27.733Z,15.44
2023-04-21T23:00:54.380Z,15.43
2023-04-21T23:03:23.185Z,15.47
2023-04-21T23:05:49.995Z,15.44
2023-04-21T23:08:16.489Z,15.51
2023-04-21T23:10:43.064Z,15.51
2023-04-21T23:13:09.758Z,15.53
2023-04-21T23:15:36.654Z,15.51
2023-04-21T23:18:03.319Z,15.50
2023-04-21T23:20:29.977Z,15.52
2023-04-21T23:22:56.560Z,15.58
2023-04-21T23:25:23.852Z,15.63
2023-04-21T23:27:50.375Z,15.67
2023-04-21T23:30:17.067Z,15.65
2023-04-21T23:32:43.781Z,15.68
2023-04-21T23:35:10.813Z,15.70
2023-04-21T23:37:37.394Z,15.72
2023-04-21T23:40:09.021Z,15.74
2023-04-21T23:42:36.163Z,15.71
2023-04-21T23:45:03.487Z,15.70
2023-04-21T23:47:30.372Z,15.69
2023-04-21T23:49:57.068Z,15.68
2023-04-21T23:52:24.197Z,15.67
2023-04-21T23:54:50.827Z,15.66
2023-04-21T23:57:17.378Z,15.59
2023-04-21T23:59:43.961Z,15.59
